Time;durP1;ratioP1;P1;durP2;ratioP2;P2;SDS_P1;SDS_P2;PMS_P1;PMS_P2;Temp;Humidity;BMP_temperature;BMP_pressure;BME280_temperature;BME280_humidity;BME280_pressure;Samples;Min_cycle;Max_cycle;Signal;HPM_P1;HPM_P2
2022/03/01 00:02:17;;;;;;;23.63;12.50;;;2.20;99.90;;;;;;5082834;28;20260;-81
2022/03/01 00:04:44;;;;;;;20.63;11.10;;;2.10;99.90;;;;;;5096092;28;20201;-81
2022/03/01 00:07:11;;;;;;;21.20;12.17;;;2.10;99.90;;;;;;5092518;28;20235;-81
2022/03/01 00:09:38;;;;;;;20.23;11.23;;;2.10;99.90;;;;;;5096268;28;20779;-82
2022/03/01 00:12:06;;;;;;;21.50;11.70;;;2.10;99.90;;;;;;5102402;28;20641;-81
2022/03/01 00:14:33;;;;;;;21.60;11.90;;;2.20;99.90;;;;;;5083619;28;20206;-80
2022/03/01 00:17:00;;;;;;;22.43;11.23;;;2.20;99.90;;;;;;5099055;28;20222;-82
2022/03/01 00:19:29;;;;;;;21.97;11.00;;;2.10;99.90;;;;;;5094782;28;20782;-81
2022/03/01 00:21:57;;;;;;;23.83;10.77;;;2.10;99.90;;;;;;5101967;28;20281;-83
2022/03/01 00:24:25;;;;;;;21.10;11.33;;;2.10;99.90;;;;;;5100519;28;20689;-82
2022/03/01 00:26:51;;;;;;;22.97;10.77;;;2.10;99.90;;;;;;5091000;28;20203;-82
2022/03/01 00:29:18;;;;;;;18.93;11.37;;;2.00;99.90;;;;;;5079808;28;20320;-81
2022/03/01 00:31:45;;;;;;;21.83;10.83;;;2.00;99.90;;;;;;5099131;28;20224;-81
2022/03/01 00:34:12;;;;;;;23.30;11.50;;;2.00;99.90;;;;;;5101640;28;20255;-83
2022/03/01 00:36:39;;;;;;;23.23;12.30;;;1.90;99.90;;;;;;5076120;28;20277;-81
2022/03/01 00:39:07;;;;;;;27.00;12.43;;;1.90;99.90;;;;;;5100812;28;20211;-81
2022/03/01 00:41:34;;;;;;;25.93;12.43;;;1.90;99.90;;;;;;5099387;28;20698;-80
2022/03/01 00:44:01;;;;;;;23.33;11.40;;;1.90;99.90;;;;;;5100790;28;20753;-81
2022/03/01 00:46:28;;;;;;;26.27;12.23;;;1.90;99.90;;;;;;5106508;28;20215;-81
2022/03/01 00:48:57;;;;;;;24.23;11.97;;;1.80;99.90;;;;;;5099803;28;20274;-81
2022/03/01 00:51:26;;;;;;;24.30;12.97;;;1.90;99.90;;;;;;5098570;28;20272;-83
2022/03/01 00:53:53;;;;;;;24.37;12.73;;;1.80;99.90;;;;;;5096358;28;21472;-82
2022/03/01 00:56:20;;;;;;;22.53;11.67;;;1.80;99.90;;;;;;5102480;28;20214;-81
2022/03/01 00:58:47;;;;;;;23.53;13.00;;;1.80;99.90;;;;;;5102666;28;20249;-82
2022/03/01 01:01:14;;;;;;;27.20;12.03;;;1.70;99.90;;;;;;5102009;28;20328;-82
2022/03/01 01:03:41;;;;;;;21.20;11.97;;;1.70;99.90;;;;;;5101155;28;20714;-82
2022/03/01 01:06:07;;;;;;;25.30;12.53;;;1.70;99.90;;;;;;5092391;28;20237;-81
2022/03/01 01:08:34;;;;;;;27.80;12.83;;;1.70;99.90;;;;;;5101748;28;20641;-81
2022/03/01 01:11:01;;;;;;;23.50;13.47;;;1.60;99.90;;;;;;5102134;28;20252;-80
2022/03/01 01:13:30;;;;;;;22.17;12.17;;;1.60;99.90;;;;;;5095406;28;20349;-82
2022/03/01 01:15:57;;;;;;;24.50;12.93;;;1.60;99.90;;;;;;5100973;28;20632;-82
2022/03/01 01:18:25;;;;;;;26.03;13.90;;;1.60;99.90;;;;;;5095753;28;20290;-81
2022/03/01 01:20:52;;;;;;;29.50;12.83;;;1.50;99.90;;;;;;5095001;28;20357;-80
2022/03/01 01:23:19;;;;;;;25.93;12.70;;;1.50;99.90;;;;;;5084178;28;20205;-82
2022/03/01 01:25:46;;;;;;;26.67;13.93;;;1.50;99.90;;;;;;5098241;28;20297;-81
2022/03/01 01:28:14;;;;;;;23.87;11.77;;;1.50;99.90;;;;;;5105292;28;20199;-82
2022/03/01 01:30:40;;;;;;;25.60;13.33;;;1.50;99.90;;;;;;5104907;28;20789;-82
2022/03/01 01:33:08;;;;;;;25.90;12.63;;;1.50;99.90;;;;;;5103964;28;20309;-81
2022/03/01 01:35:36;;;;;;;26.13;13.13;;;1.40;99.90;;;;;;5088131;28;20338;-82
2022/03/01 01:38:03;;;;;;;26.00;12.00;;;1.40;99.90;;;;;;5079117;28;20210;-81
2022/03/01 01:40:32;;;;;;;27.30;12.70;;;1.40;99.90;;;;;;5084186;28;20226;-81
2022/03/01 01:43:01;;;;;;;24.27;12.47;;;1.40;99.90;;;;;;5083167;28;20210;-82
2022/03/01 01:45:28;;;;;;;26.63;13.23;;;1.40;99.90;;;;;;5082840;28;20316;-81
2022/03/01 01:47:57;;;;;;;24.97;12.43;;;1.50;99.90;;;;;;5089535;28;20196;-81
2022/03/01 01:50:25;;;;;;;24.77;12.57;;;1.50;99.90;;;;;;5069059;28;20326;-82
2022/03/01 01:52:54;;;;;;;28.33;12.30;;;1.50;99.90;;;;;;5078766;28;20683;-82
2022/03/01 01:55:22;;;;;;;26.40;13.20;;;1.50;99.90;;;;;;5078555;28;20221;-82
2022/03/01 01:57:56;;;;;;;32.37;13.13;;;1.50;99.90;;;;;;5082718;28;20650;-81
2022/03/01 02:00:23;;;;;;;27.77;12.70;;;1.50;99.90;;;;;;5086160;28;20596;-82
2022/03/01 02:02:50;;;;;;;25.97;12.47;;;1.50;99.90;;;;;;5086604;28;20303;-81
2022/03/01 02:05:17;;;;;;;25.70;12.43;;;1.50;99.90;;;;;;5088694;28;20199;-80
2022/03/01 02:07:46;;;;;;;23.97;11.67;;;1.40;99.90;;;;;;5086096;28;20241;-81
2022/03/01 02:10:13;;;;;;;21.60;12.13;;;1.50;99.90;;;;;;5060966;28;20237;-82
2022/03/01 02:12:41;;;;;;;27.50;12.60;;;1.40;99.90;;;;;;5086687;28;20229;-81
2022/03/01 02:15:08;;;;;;;25.50;12.80;;;1.40;99.90;;;;;;5079988;28;20732;-81
2022/03/01 02:17:39;;;;;;;26.33;12.90;;;1.40;99.90;;;;;;5068976;28;20216;-82
2022/03/01 02:20:17;;;;;;;24.53;12.87;;;1.30;99.90;;;;;;5084469;28;20210;-81
2022/03/01 02:22:45;;;;;;;28.10;14.07;;;1.30;99.90;;;;;;5079386;28;20232;-81
2022/03/01 02:25:13;;;;;;;33.33;13.60;;;1.30;99.90;;;;;;5080630;28;20250;-81
2022/03/01 02:27:40;;;;;;;25.67;12.63;;;1.30;99.90;;;;;;5069765;28;20212;-82
2022/03/01 02:30:09;;;;;;;26.20;13.30;;;1.20;99.90;;;;;;5072243;28;20292;-82
2022/03/01 02:32:37;;;;;;;25.90;13.30;;;1.20;99.90;;;;;;5084759;28;20255;-83
2022/03/01 02:35:05;;;;;;;27.43;13.60;;;1.20;99.90;;;;;;5088524;28;20322;-81
2022/03/01 02:37:32;;;;;;;26.27;12.43;;;1.20;99.90;;;;;;5081856;28;20626;-82
2022/03/01 02:40:00;;;;;;;25.50;14.07;;;1.20;99.90;;;;;;5063429;28;20203;-81
2022/03/01 02:42:30;;;;;;;25.10;13.33;;;1.20;99.90;;;;;;5077743;28;20321;-79
2022/03/01 02:44:58;;;;;;;28.57;13.50;;;1.20;99.90;;;;;;5088687;28;20212;-81
2022/03/01 02:47:24;;;;;;;28.93;13.10;;;1.30;99.90;;;;;;5081369;28;20254;-81
2022/03/01 02:49:51;;;;;;;25.17;12.67;;;1.30;99.90;;;;;;5090861;28;20236;-81
2022/03/01 02:52:18;;;;;;;25.63;13.73;;;1.40;99.90;;;;;;5081837;28;20269;-81
2022/03/01 02:54:46;;;;;;;26.47;13.07;;;1.30;99.90;;;;;;5080677;28;20206;-81
2022/03/01 02:57:13;;;;;;;26.00;13.90;;;1.20;99.90;;;;;;5083558;28;20234;-80
2022/03/01 02:59:40;;;;;;;29.17;13.67;;;1.30;99.90;;;;;;5085452;28;20207;-80
2022/03/01 03:02:09;;;;;;;27.53;13.33;;;1.30;99.90;;;;;;5086694;28;20322;-79
2022/03/01 03:04:36;;;;;;;32.20;14.03;;;1.20;99.90;;;;;;5062424;28;20203;-81
2022/03/01 03:07:03;;;;;;;25.30;13.27;;;1.20;99.90;;;;;;5076581;28;20829;-80
2022/03/01 03:09:30;;;;;;;29.37;14.17;;;1.20;99.90;;;;;;5059463;28;20206;-80
2022/03/01 03:11:57;;;;;;;28.40;13.23;;;1.20;99.90;;;;;;5067573;28;20190;-80
2022/03/01 03:14:24;;;;;;;30.53;13.33;;;1.20;99.90;;;;;;5080133;28;20215;-81
2022/03/01 03:16:51;;;;;;;27.47;14.30;;;1.20;99.90;;;;;;5083573;28;20227;-81
2022/03/01 03:19:18;;;;;;;26.30;13.20;;;1.10;99.90;;;;;;5087491;28;20339;-82
2022/03/01 03:21:46;;;;;;;29.47;14.10;;;1.10;99.90;;;;;;5063366;28;20234;-80
2022/03/01 03:24:14;;;;;;;27.17;13.37;;;1.10;99.90;;;;;;5069145;28;20232;-80
2022/03/01 03:26:42;;;;;;;26.67;13.90;;;1.10;99.90;;;;;;5083654;28;20305;-81
2022/03/01 03:29:09;;;;;;;30.93;14.83;;;1.10;99.90;;;;;;5085932;28;20235;-81
2022/03/01 03:31:37;;;;;;;29.67;14.33;;;1.10;99.90;;;;;;5087589;28;20317;-81
2022/03/01 03:34:06;;;;;;;29.60;14.33;;;1.10;99.90;;;;;;5061696;28;20746;-80
2022/03/01 03:36:34;;;;;;;24.13;13.83;;;1.10;99.90;;;;;;5099661;27;20200;-82
2022/03/01 03:39:03;;;;;;;26.40;12.97;;;1.10;99.90;;;;;;5099395;28;20234;-82
2022/03/01 03:41:30;;;;;;;25.33;13.73;;;1.10;99.90;;;;;;5100774;27;20250;-81
2022/03/01 03:43:59;;;;;;;31.03;14.40;;;1.10;99.90;;;;;;5099259;27;20202;-80
2022/03/01 03:46:26;;;;;;;26.33;14.03;;;1.20;99.90;;;;;;5098640;27;20235;-81
2022/03/01 03:48:54;;;;;;;29.63;14.37;;;1.20;99.90;;;;;;5107261;27;20200;-81
2022/03/01 03:51:23;;;;;;;26.40;12.80;;;1.20;99.90;;;;;;5095578;28;20297;-81
2022/03/01 03:53:50;;;;;;;26.83;14.00;;;1.30;99.90;;;;;;5097618;27;20234;-81
2022/03/01 03:56:16;;;;;;;28.20;14.57;;;1.20;99.90;;;;;;5089921;27;20237;-82
2022/03/01 03:58:43;;;;;;;26.10;14.37;;;1.30;99.90;;;;;;5098376;27;20743;-81
2022/03/01 04:01:11;;;;;;;28.67;14.07;;;1.30;99.90;;;;;;5100937;27;20244;-81
2022/03/01 04:03:38;;;;;;;32.23;13.47;;;1.30;99.90;;;;;;5098898;28;20231;-81
2022/03/01 04:06:06;;;;;;;28.10;14.23;;;1.40;99.90;;;;;;5086740;28;20204;-81
2022/03/01 04:08:34;;;;;;;28.53;14.03;;;1.40;99.90;;;;;;5101227;28;20202;-81
2022/03/01 04:11:01;;;;;;;29.20;14.70;;;1.40;99.90;;;;;;5096890;28;20678;-82
2022/03/01 04:13:27;;;;;;;28.83;14.10;;;1.40;99.90;;;;;;5105767;27;20210;-81
2022/03/01 04:15:54;;;;;;;28.50;14.50;;;1.50;99.90;;;;;;5085133;27;20221;-82
2022/03/01 04:18:21;;;;;;;31.47;14.03;;;1.40;99.90;;;;;;5107917;27;20659;-80
2022/03/01 04:20:48;;;;;;;26.77;14.00;;;1.40;99.90;;;;;;5084817;28;20312;-81
2022/03/01 04:23:15;;;;;;;28.43;14.20;;;1.40;99.90;;;;;;5098130;28;20282;-83
2022/03/01 04:25:42;;;;;;;30.43;13.47;;;1.40;99.90;;;;;;5088573;28;20197;-81
2022/03/01 04:28:11;;;;;;;30.40;14.67;;;1.40;99.90;;;;;;5085772;28;20230;-81
2022/03/01 04:30:38;;;;;;;29.97;14.77;;;1.40;99.90;;;;;;5088924;28;20207;-80
2022/03/01 04:33:04;;;;;;;29.50;13.97;;;1.50;99.90;;;;;;5102699;28;20203;-81
2022/03/01 04:35:31;;;;;;;31.10;14.53;;;1.50;99.90;;;;;;5097811;28;20324;-81
2022/03/01 04:37:58;;;;;;;29.30;15.17;;;1.60;99.90;;;;;;5096318;28;20207;-81
2022/03/01 04:40:25;;;;;;;28.53;13.37;;;1.50;99.90;;;;;;5099747;28;20264;-81
2022/03/01 04:42:52;;;;;;;28.23;14.90;;;1.50;99.90;;;;;;5086123;28;20231;-82
2022/03/01 04:45:19;;;;;;;30.47;15.07;;;1.60;99.90;;;;;;5092011;28;20339;-81
2022/03/01 04:47:46;;;;;;;26.03;13.73;;;1.60;99.90;;;;;;5090047;28;20533;-83
2022/03/01 04:50:13;;;;;;;30.57;13.90;;;1.60;99.90;;;;;;5110785;28;20223;-81
2022/03/01 04:52:40;;;;;;;26.53;13.77;;;1.70;99.90;;;;;;5096552;28;20205;-81
2022/03/01 04:55:08;;;;;;;23.50;13.73;;;1.70;99.90;;;;;;5095890;28;20215;-80
2022/03/01 04:57:35;;;;;;;25.10;13.93;;;1.80;99.90;;;;;;5111611;27;20576;-82
2022/03/01 05:00:10;;;;;;;28.30;14.60;;;1.80;99.90;;;;;;5108647;27;20219;-81
2022/03/01 05:02:44;;;;;;;29.53;14.83;;;1.80;99.90;;;;;;5098225;27;20238;-81
2022/03/01 05:05:13;;;;;;;28.87;14.70;;;1.80;99.90;;;;;;5106466;27;20227;-81
2022/03/01 05:07:41;;;;;;;30.60;15.17;;;1.90;99.90;;;;;;5110370;28;20235;-82
2022/03/01 05:10:10;;;;;;;29.10;14.40;;;1.80;99.90;;;;;;5085300;28;20219;-82
2022/03/01 05:12:41;;;;;;;30.20;13.87;;;1.90;99.90;;;;;;5085537;27;21272;-80
2022/03/01 05:15:09;;;;;;;32.10;14.77;;;1.90;99.90;;;;;;5103212;27;20675;-81
2022/03/01 05:17:36;;;;;;;32.27;15.57;;;1.90;99.90;;;;;;5103412;27;20247;-81
2022/03/01 05:20:03;;;;;;;27.77;14.93;;;1.90;99.90;;;;;;5112882;27;20237;-82
2022/03/01 05:22:30;;;;;;;28.97;14.23;;;1.90;99.90;;;;;;5085406;28;20721;-80
2022/03/01 05:24:57;;;;;;;27.30;14.47;;;1.90;99.90;;;;;;5096835;27;20664;-82
2022/03/01 05:27:24;;;;;;;30.60;14.73;;;2.00;99.90;;;;;;5109549;27;20795;-81
2022/03/01 05:29:51;;;;;;;34.40;14.63;;;2.00;99.90;;;;;;5100469;27;20302;-79
2022/03/01 05:32:18;;;;;;;30.47;15.57;;;2.00;99.90;;;;;;5086983;28;20547;-81
2022/03/01 05:34:45;;;;;;;27.77;13.97;;;2.00;99.90;;;;;;5080108;28;20363;-81
2022/03/01 05:37:13;;;;;;;28.77;14.17;;;2.00;99.90;;;;;;5080532;28;20693;-81
2022/03/01 05:39:40;;;;;;;31.20;14.27;;;2.00;99.90;;;;;;5081544;28;20584;-81
2022/03/01 05:42:08;;;;;;;31.10;15.00;;;2.00;99.90;;;;;;5096665;28;20227;-81
2022/03/01 05:44:35;;;;;;;30.00;15.47;;;1.90;99.90;;;;;;5087042;28;20256;-81
2022/03/01 05:47:02;;;;;;;30.07;15.00;;;1.90;99.90;;;;;;5083075;28;20697;-81
2022/03/01 05:49:28;;;;;;;25.97;14.60;;;1.90;99.90;;;;;;5083906;28;20199;-81
2022/03/01 05:51:55;;;;;;;30.30;15.07;;;1.90;99.90;;;;;;5080053;28;20317;-80
2022/03/01 05:54:22;;;;;;;29.13;14.83;;;1.90;99.90;;;;;;5081418;28;20283;-80
2022/03/01 05:56:49;;;;;;;29.20;14.73;;;1.90;99.90;;;;;;5091000;28;20207;-81
2022/03/01 05:59:16;;;;;;;28.10;14.57;;;1.90;99.90;;;;;;5082701;28;20202;-81
2022/03/01 06:01:42;;;;;;;28.67;14.80;;;2.00;99.90;;;;;;5090438;28;20685;-81
2022/03/01 06:04:09;;;;;;;28.70;14.23;;;2.00;99.90;;;;;;5077297;28;20253;-82
2022/03/01 06:06:36;;;;;;;28.43;14.67;;;2.00;99.90;;;;;;5086337;28;20196;-82
2022/03/01 06:09:03;;;;;;;27.83;13.97;;;2.00;99.90;;;;;;5084830;28;20238;-82
2022/03/01 06:11:30;;;;;;;30.53;14.90;;;2.00;99.90;;;;;;5084603;28;20647;-81
2022/03/01 06:13:57;;;;;;;26.80;14.23;;;2.00;99.90;;;;;;5079220;28;20262;-81
2022/03/01 06:16:24;;;;;;;29.20;14.57;;;1.90;99.90;;;;;;5084802;28;20215;-81
2022/03/01 06:18:50;;;;;;;27.97;15.37;;;2.00;99.90;;;;;;5076672;28;20212;-81
2022/03/01 06:21:17;;;;;;;28.80;14.70;;;2.00;99.90;;;;;;5080777;28;20244;-82
2022/03/01 06:23:44;;;;;;;29.70;14.77;;;2.00;99.90;;;;;;5076335;28;20710;-81
2022/03/01 06:26:12;;;;;;;30.60;14.40;;;2.00;99.90;;;;;;5079196;28;20307;-79
2022/03/01 06:28:38;;;;;;;31.37;15.53;;;2.00;99.90;;;;;;5090340;28;20262;-79
2022/03/01 06:31:05;;;;;;;28.83;14.97;;;2.00;99.90;;;;;;5086069;28;20226;-80
2022/03/01 06:33:32;;;;;;;27.17;14.37;;;2.00;99.90;;;;;;5084285;28;20205;-81
2022/03/01 06:35:59;;;;;;;31.17;15.00;;;2.00;99.90;;;;;;5078432;28;20332;-81
2022/03/01 06:38:26;;;;;;;29.97;14.87;;;2.10;99.90;;;;;;5079834;28;20728;-82
2022/03/01 06:40:56;;;;;;;29.30;15.37;;;2.10;99.90;;;;;;5085563;28;20249;-82
2022/03/01 06:43:24;;;;;;;29.87;16.10;;;2.10;99.90;;;;;;5080091;28;20287;-81
2022/03/01 06:45:51;;;;;;;31.13;15.53;;;2.20;99.90;;;;;;5090367;28;20615;-77
2022/03/01 06:48:20;;;;;;;29.90;15.77;;;2.20;99.90;;;;;;5079482;28;20204;-81
2022/03/01 06:50:47;;;;;;;30.67;15.53;;;2.30;99.90;;;;;;5086225;28;20200;-81
2022/03/01 06:53:14;;;;;;;32.27;15.33;;;2.40;99.90;;;;;;5075508;28;20208;-81
2022/03/01 06:55:42;;;;;;;34.10;15.73;;;2.50;99.90;;;;;;5082284;28;20193;-81
2022/03/01 06:58:10;;;;;;;33.70;15.57;;;2.60;99.90;;;;;;5085502;28;20204;-80
2022/03/01 07:00:37;;;;;;;29.93;15.10;;;2.70;99.90;;;;;;5090426;28;20236;-82
2022/03/01 07:03:04;;;;;;;26.80;13.93;;;2.80;99.90;;;;;;5088016;28;20314;-80
2022/03/01 07:05:31;;;;;;;27.97;15.17;;;2.80;99.90;;;;;;5090395;28;20288;-81
2022/03/01 07:07:58;;;;;;;32.87;15.60;;;2.90;99.90;;;;;;5073448;28;20593;-80
2022/03/01 07:10:25;;;;;;;29.80;14.63;;;3.00;99.90;;;;;;5094862;28;20200;-81
2022/03/01 07:12:52;;;;;;;27.60;15.23;;;3.20;99.90;;;;;;5081460;28;20206;-81
2022/03/01 07:15:19;;;;;;;32.90;15.37;;;3.40;99.90;;;;;;5083324;28;20706;-80
2022/03/01 07:17:46;;;;;;;29.50;14.50;;;3.80;99.90;;;;;;5081458;28;20265;-80
2022/03/01 07:20:14;;;;;;;23.90;13.60;;;4.30;99.90;;;;;;5076969;28;20215;-80
2022/03/01 07:22:41;;;;;;;27.90;14.93;;;4.60;99.90;;;;;;5080605;28;20224;-81
2022/03/01 07:25:09;;;;;;;31.83;15.47;;;4.60;99.90;;;;;;5083579;28;20262;-79
2022/03/01 07:27:43;;;;;;;27.53;14.80;;;4.60;99.90;;;;;;5085764;28;20215;-81
2022/03/01 07:30:10;;;;;;;25.93;14.57;;;4.60;99.90;;;;;;5082833;28;20307;-81
2022/03/01 07:32:37;;;;;;;27.37;14.53;;;4.60;99.90;;;;;;5083882;28;20204;-79
2022/03/01 07:35:04;;;;;;;26.03;14.53;;;4.50;99.90;;;;;;5080439;28;20225;-82
2022/03/01 07:37:33;;;;;;;28.63;15.17;;;4.50;99.90;;;;;;5074357;28;20213;-82
2022/03/01 07:40:01;;;;;;;29.63;15.13;;;4.50;99.90;;;;;;5080384;28;20232;-80
2022/03/01 07:42:28;;;;;;;27.00;14.80;;;4.50;99.90;;;;;;5096275;28;20251;-80
2022/03/01 07:44:55;;;;;;;29.17;15.47;;;4.50;99.90;;;;;;5082923;28;20250;-81
2022/03/01 07:47:23;;;;;;;26.73;15.33;;;4.50;99.90;;;;;;5079304;28;20223;-80
2022/03/01 07:49:54;;;;;;;26.73;14.80;;;4.50;99.90;;;;;;5081810;28;20658;-79
2022/03/01 07:52:21;;;;;;;30.07;15.03;;;4.50;99.90;;;;;;5061015;28;20293;-80
2022/03/01 07:54:49;;;;;;;29.10;15.80;;;4.40;99.90;;;;;;5074050;28;20355;-82
2022/03/01 07:57:16;;;;;;;28.00;14.23;;;4.50;99.90;;;;;;5081744;28;20708;-81
2022/03/01 07:59:43;;;;;;;26.53;13.97;;;4.50;99.90;;;;;;5086376;28;20330;-81
2022/03/01 08:02:11;;;;;;;30.03;14.53;;;4.50;99.90;;;;;;5076918;28;20235;-80
2022/03/01 08:04:41;;;;;;;27.47;14.00;;;4.50;99.90;;;;;;5090174;28;20200;-81
2022/03/01 08:07:09;;;;;;;26.33;14.13;;;4.50;99.90;;;;;;5085971;28;20212;-80
2022/03/01 08:09:38;;;;;;;28.10;14.50;;;4.50;99.90;;;;;;5079992;28;20205;-79
2022/03/01 08:12:06;;;;;;;26.93;13.47;;;4.50;99.90;;;;;;5076307;28;20303;-79
2022/03/01 08:14:35;;;;;;;24.23;13.77;;;4.60;99.90;;;;;;5089158;28;20207;-81
2022/03/01 08:17:03;;;;;;;26.57;13.93;;;4.50;99.90;;;;;;5068272;28;20208;-83
2022/03/01 08:19:30;;;;;;;23.67;14.13;;;4.50;99.90;;;;;;5086139;28;20197;-81
2022/03/01 08:21:56;;;;;;;23.80;13.60;;;4.60;99.90;;;;;;5080915;28;20304;-81
2022/03/01 08:24:23;;;;;;;28.40;14.30;;;4.60;99.90;;;;;;5086151;28;20719;-82
2022/03/01 08:26:50;;;;;;;25.67;14.23;;;4.60;99.90;;;;;;5088923;28;20271;-81
2022/03/01 08:29:17;;;;;;;23.87;13.57;;;4.60;99.90;;;;;;5069035;28;20620;-81
2022/03/01 08:31:44;;;;;;;27.13;13.80;;;4.60;99.90;;;;;;5077700;28;20224;-80
2022/03/01 08:34:11;;;;;;;26.90;14.87;;;4.70;99.90;;;;;;5089223;28;20212;-80
2022/03/01 08:36:38;;;;;;;23.80;13.37;;;4.70;99.90;;;;;;5077308;28;20225;-82
2022/03/01 08:39:05;;;;;;;25.07;14.20;;;4.80;99.90;;;;;;5069189;28;20203;-82
2022/03/01 08:41:32;;;;;;;27.33;15.00;;;4.90;99.90;;;;;;5089836;28;20211;-81
2022/03/01 08:43:59;;;;;;;25.07;13.13;;;4.90;99.90;;;;;;5089158;28;20317;-81
2022/03/01 08:46:26;;;;;;;24.70;13.97;;;5.00;99.90;;;;;;5092828;28;20619;-81
2022/03/01 08:48:53;;;;;;;27.27;14.40;;;5.10;99.90;;;;;;5088918;28;20244;-80
2022/03/01 08:51:21;;;;;;;27.40;13.57;;;5.20;99.90;;;;;;5083019;28;20331;-80
2022/03/01 08:53:49;;;;;;;25.87;14.23;;;5.40;99.90;;;;;;5076347;28;20273;-82
2022/03/01 08:56:16;;;;;;;27.03;14.03;;;5.50;99.90;;;;;;5078782;28;20208;-82
2022/03/01 08:58:44;;;;;;;25.83;13.67;;;5.60;99.90;;;;;;5091662;28;20236;-81
2022/03/01 09:01:11;;;;;;;26.03;13.43;;;5.70;99.90;;;;;;5070210;28;20343;-82
2022/03/01 09:03:39;;;;;;;25.50;14.27;;;5.80;99.90;;;;;;5082629;28;20232;-81
2022/03/01 09:06:12;;;;;;;23.50;13.83;;;5.90;99.90;;;;;;5068056;28;20211;-82
2022/03/01 09:08:40;;;;;;;25.00;13.50;;;6.10;99.90;;;;;;5082730;28;20219;-81
2022/03/01 09:11:09;;;;;;;24.30;13.97;;;6.10;99.90;;;;;;5092825;28;20204;-80
2022/03/01 09:13:36;;;;;;;24.13;13.03;;;6.20;99.90;;;;;;5084319;28;20199;-82
2022/03/01 09:16:03;;;;;;;25.30;14.10;;;6.20;99.90;;;;;;5086130;28;20224;-81
2022/03/01 09:18:30;;;;;;;22.93;12.83;;;6.30;99.90;;;;;;5082225;28;20692;-83
2022/03/01 09:20:57;;;;;;;25.07;14.13;;;6.40;99.90;;;;;;5072967;28;20201;-80
2022/03/01 09:23:24;;;;;;;24.87;13.37;;;6.40;99.90;;;;;;5072454;28;20232;-81
2022/03/01 09:25:51;;;;;;;21.73;12.23;;;6.50;99.90;;;;;;5090462;28;20229;-81
2022/03/01 09:28:18;;;;;;;20.63;13.50;;;6.60;99.90;;;;;;5084056;28;20661;-79
2022/03/01 09:30:45;;;;;;;22.87;13.43;;;6.70;99.90;;;;;;5094126;28;20243;-81
2022/03/01 09:33:13;;;;;;;20.53;12.57;;;6.80;99.90;;;;;;5081653;28;20753;-83
2022/03/01 09:35:40;;;;;;;24.23;12.57;;;6.90;99.90;;;;;;5093749;28;20539;-81
2022/03/01 09:38:07;;;;;;;24.10;13.00;;;7.10;99.90;;;;;;5096455;28;20208;-82
2022/03/01 09:40:34;;;;;;;20.33;12.47;;;7.30;99.90;;;;;;5109159;27;20206;-81
2022/03/01 09:43:02;;;;;;;21.77;13.30;;;6.90;99.90;;;;;;5106147;27;20722;-80
2022/03/01 09:45:29;;;;;;;23.90;12.33;;;7.30;99.90;;;;;;5108620;27;20221;-80
2022/03/01 09:47:56;;;;;;;25.07;13.17;;;7.40;99.90;;;;;;5109064;27;20241;-82
2022/03/01 09:50:27;;;;;;;26.57;13.00;;;7.50;99.90;;;;;;5103470;27;20214;-81
2022/03/01 09:52:56;;;;;;;20.83;12.47;;;7.50;99.90;;;;;;5096366;28;20209;-81
2022/03/01 09:55:24;;;;;;;20.67;12.73;;;7.50;99.90;;;;;;5105252;27;20203;-80
2022/03/01 09:57:55;;;;;;;22.40;13.40;;;7.60;99.90;;;;;;5109123;27;20220;-79
2022/03/01 10:00:23;;;;;;;22.13;12.17;;;7.70;99.90;;;;;;5119645;27;20647;-82
2022/03/01 10:02:54;;;;;;;21.43;12.50;;;7.80;99.90;;;;;;5112007;27;20258;-79
2022/03/01 10:05:38;;;;;;;20.70;12.47;;;7.80;99.90;;;;;;5109096;27;20214;-80
2022/03/01 10:08:10;;;;;;;23.03;13.80;;;7.90;99.90;;;;;;5081762;28;20210;-80
2022/03/01 10:10:47;;;;;;;22.40;12.73;;;8.00;99.90;;;;;;5110310;27;20295;-80
2022/03/01 10:13:22;;;;;;;21.00;12.60;;;8.10;99.90;;;;;;5112921;27;20213;-80
2022/03/01 10:16:08;;;;;;;21.47;13.03;;;8.10;99.90;;;;;;5107253;27;20304;-81
2022/03/01 10:18:38;;;;;;;22.43;12.10;;;8.20;99.90;;;;;;5093079;27;20224;-82
2022/03/01 10:21:11;;;;;;;21.10;12.47;;;8.20;99.90;;;;;;5093063;28;20208;-80
2022/03/01 10:23:44;;;;;;;22.37;12.43;;;9.00;99.90;;;;;;5088079;27;20254;-80
2022/03/01 10:26:13;;;;;;;20.60;12.83;;;8.40;99.90;;;;;;5106682;27;20836;-80
2022/03/01 10:28:42;;;;;;;21.47;12.20;;;9.50;99.90;;;;;;5103091;27;20216;-80
2022/03/01 10:31:13;;;;;;;23.80;13.07;;;8.00;99.90;;;;;;5108014;27;20296;-79
2022/03/01 10:33:54;;;;;;;21.60;12.33;;;8.60;99.90;;;;;;5103864;27;20210;-81
2022/03/01 10:36:24;;;;;;;20.20;12.33;;;8.70;99.90;;;;;;5097445;27;20656;-79
2022/03/01 10:38:56;;;;;;;21.33;12.70;;;8.80;99.90;;;;;;5097007;27;20242;-79
2022/03/01 10:41:28;;;;;;;22.20;13.17;;;8.90;99.90;;;;;;5089635;27;20208;-82
2022/03/01 10:43:58;;;;;;;18.90;11.77;;;9.00;99.90;;;;;;5102615;27;20343;-80
2022/03/01 10:46:28;;;;;;;20.60;12.10;;;9.00;99.90;;;;;;5093099;27;20567;-81
2022/03/01 10:49:08;;;;;;;24.60;13.33;;;9.10;99.90;;;;;;5107629;27;20246;-81
2022/03/01 10:51:49;;;;;;;18.97;11.87;;;9.30;99.90;;;;;;5103383;28;20196;-79
2022/03/01 10:54:32;;;;;;;20.13;12.97;;;9.40;99.90;;;;;;5084262;28;20236;-80
2022/03/01 10:57:01;;;;;;;19.40;11.73;;;9.50;99.90;;;;;;5091071;28;20221;-81
2022/03/01 10:59:30;;;;;;;18.70;11.60;;;9.60;99.90;;;;;;5099075;27;20206;-80
2022/03/01 11:01:57;;;;;;;18.23;11.13;;;9.70;99.90;;;;;;5107760;27;20273;-79
2022/03/01 11:04:26;;;;;;;16.73;11.97;;;9.90;99.90;;;;;;5101071;27;20319;-79
2022/03/01 11:07:01;;;;;;;20.43;12.10;;;10.00;99.90;;;;;;5097667;28;20265;-81
2022/03/01 11:09:33;;;;;;;17.10;11.57;;;10.20;99.90;;;;;;5102961;27;20218;-80
2022/03/01 11:12:02;;;;;;;17.57;12.27;;;10.30;99.90;;;;;;5101834;27;20208;-81
2022/03/01 11:14:47;;;;;;;19.80;12.03;;;10.30;99.90;;;;;;5107096;27;20227;-80
2022/03/01 11:17:20;;;;;;;22.37;11.83;;;10.40;99.90;;;;;;5107465;27;20214;-81
2022/03/01 11:20:08;;;;;;;21.27;13.47;;;10.50;99.90;;;;;;5102977;27;20221;-80
2022/03/01 11:22:51;;;;;;;20.07;11.57;;;10.60;99.90;;;;;;5097241;28;20220;-80
2022/03/01 11:25:24;;;;;;;18.20;11.60;;;10.60;99.90;;;;;;5106672;27;20558;-80
2022/03/01 11:27:52;;;;;;;19.40;12.80;;;10.70;99.90;;;;;;5106957;27;20315;-81
2022/03/01 11:30:29;;;;;;;18.97;11.73;;;10.80;99.90;;;;;;5099592;27;20635;-79
2022/03/01 11:32:56;;;;;;;21.23;13.10;;;10.80;99.90;;;;;;5095527;28;20269;-80
2022/03/01 11:35:28;;;;;;;20.53;12.70;;;10.90;99.90;;;;;;5095339;27;20604;-79
2022/03/01 11:38:11;;;;;;;19.90;12.50;;;10.90;99.90;;;;;;5094622;28;20239;-80
2022/03/01 11:40:46;;;;;;;20.07;11.57;;;11.00;99.90;;;;;;5104101;27;20245;-80
2022/03/01 11:43:27;;;;;;;21.27;11.60;;;11.10;99.90;;;;;;5100401;27;20727;-79
2022/03/01 11:45:56;;;;;;;19.10;12.03;;;11.20;99.90;;;;;;5102787;27;20551;-80
2022/03/01 11:48:28;;;;;;;22.33;12.10;;;11.20;99.90;;;;;;5099286;27;20203;-80
2022/03/01 11:50:57;;;;;;;19.97;11.57;;;11.30;99.90;;;;;;5087579;28;21437;-80
2022/03/01 11:53:28;;;;;;;18.10;11.67;;;11.30;99.90;;;;;;5101252;27;20689;-81
2022/03/01 11:55:57;;;;;;;19.73;11.80;;;11.30;99.90;;;;;;5098194;27;20535;-80
2022/03/01 11:58:25;;;;;;;20.07;12.03;;;11.40;99.90;;;;;;5114101;27;20199;-81
2022/03/01 12:00:54;;;;;;;22.33;12.33;;;11.50;99.90;;;;;;5101908;27;20216;-81
2022/03/01 12:03:25;;;;;;;22.97;12.53;;;11.40;99.90;;;;;;5091701;28;20268;-80
2022/03/01 12:05:54;;;;;;;24.00;12.30;;;11.50;99.90;;;;;;5098846;28;20235;-81
2022/03/01 12:08:21;;;;;;;19.20;11.90;;;11.50;99.90;;;;;;5098595;28;20259;-81
2022/03/01 12:11:07;;;;;;;18.47;12.17;;;11.60;99.90;;;;;;5101692;27;20648;-81
2022/03/01 12:13:39;;;;;;;20.20;11.83;;;11.60;99.90;;;;;;5102036;27;20666;-80
2022/03/01 12:16:08;;;;;;;20.57;11.90;;;11.60;99.90;;;;;;5104380;27;20267;-81
2022/03/01 12:18:37;;;;;;;17.87;10.90;;;11.60;99.90;;;;;;5097457;27;20255;-79
2022/03/01 12:21:11;;;;;;;22.50;12.40;;;11.60;99.90;;;;;;5098717;28;20204;-80
2022/03/01 12:23:41;;;;;;;22.23;11.70;;;11.50;99.90;;;;;;5099149;28;20283;-81
2022/03/01 12:26:10;;;;;;;23.27;12.20;;;11.40;99.90;;;;;;5102406;28;20211;-81
2022/03/01 12:28:43;;;;;;;22.83;12.53;;;11.50;99.90;;;;;;5089677;28;20291;-80
2022/03/01 12:31:13;;;;;;;21.30;12.03;;;11.50;99.90;;;;;;5102377;28;20696;-82
2022/03/01 12:34:08;;;;;;;18.47;12.80;;;11.50;99.90;;;;;;5102974;28;20211;-81
2022/03/01 12:36:40;;;;;;;18.83;12.30;;;11.50;99.90;;;;;;5097618;28;20260;-81
2022/03/01 12:39:10;;;;;;;20.43;12.67;;;11.40;99.90;;;;;;5100063;28;20203;-80
2022/03/01 12:41:44;;;;;;;20.57;12.90;;;11.40;99.90;;;;;;5106076;28;20575;-82
2022/03/01 12:44:12;;;;;;;22.57;12.30;;;11.40;99.90;;;;;;5103231;28;20712;-80